Latest Weather Observations for Mandora

IDW60801

Issued at 11:43 pm WST Friday 28 February 2020 (issued every 10 minutes, with the page automatically refreshed every 10 minutes)

About weather observations | Map of weather stations | Latest weather observations for WA | Other Formats
Station Details ID: 004019 Name: MANDORA Lat: -19.74 Lon: 120.84 Height: 7.5 m
Data from the previous 72 hours. | See also: Recent months at Mandora
Date/Time
WST
Temp
°C
App
Temp
°C
Dew
Point
°C
Rel
Hum
%
Delta-T
°C
Wind Press
QNH
hPa
Press
MSL
hPa
Rain since
9am
mm
Dir  Spd
km/h
Gust
km/h
Spd
kts
Gust
kts
28/11:30pm 28.6 - - - - WSW 9 11 5 6 1003.7 1003.6 0.0
28/11:00pm 29.6 - - - - S 7 11 4 6 1003.9 1003.8 0.0
28/10:30pm 29.7 - - - - SW 7 11 4 6 1004.0 1003.9 0.0
28/10:00pm 29.9 - - - - WSW 13 19 7 10 1003.6 1003.5 0.0
28/09:30pm 30.0 - - - - WSW 11 19 6 10 1003.3 1003.2 0.0
28/09:00pm 30.3 - - - - WSW 11 17 6 9 1003.0 1002.9 0.0
28/08:30pm 30.5 - - - - W 13 19 7 10 1003.1 1003.0 0.0
28/08:00pm 30.8 - - - - WSW 17 24 9 13 1002.7 1002.6 0.0
28/07:30pm 31.1 - - - - WSW 15 26 8 14 1002.5 1002.4 0.0
28/07:00pm 31.4 - - - - WSW 19 26 10 14 1002.4 1002.3 0.0
28/06:30pm 31.8 - - - - W 17 26 9 14 1002.0 1001.9 0.0
28/06:00pm 32.4 - - - - W 20 32 11 17 1001.6 1001.5 0.0
28/05:30pm 33.4 - - - - W 20 32 11 17 1001.6 1001.5 0.0
28/05:00pm 33.9 - - - - W 22 30 12 16 1001.0 1000.9 0.0
28/04:30pm 34.8 - - - - W 20 32 11 17 1001.1 1001.0 0.0
28/04:00pm 35.5 - - - - WNW 19 28 10 15 1001.2 1001.1 0.0
28/03:30pm 36.0 - - - - WNW 19 26 10 14 1001.5 1001.4 0.0
28/03:00pm 35.9 - - - - WNW 19 30 10 16 1001.9 1001.8 0.0
28/02:30pm 36.6 - - - - NW 19 26 10 14 1002.1 1002.0 0.0
28/02:00pm 36.4 - - - - NW 20 30 11 16 1002.6 1002.5 0.0
28/01:30pm 36.0 - - - - NW 20 30 11 16 1003.0 1002.9 0.0
28/01:00pm 37.2 - - - - NW 17 24 9 13 1003.4 1003.3 0.0
28/12:30pm 36.8 - - - - NW 17 24 9 13 1004.0 1003.9 0.0
28/12:00pm 36.7 - - - - NNW 17 24 9 13 1004.6 1004.5 0.0
28/11:30am 38.8 - - - - NE 9 17 5 9 1004.9 1004.8 0.0
28/11:00am 38.8 - - - - E 6 13 3 7 1005.3 1005.2 0.0
28/10:30am 37.6 - - - - SSW 7 11 4 6 1005.8 1005.7 0.0
28/10:00am 36.3 - - - - SE 6 15 3 8 1005.9 1005.8 0.0
28/09:30am 35.7 - - - - SSW 7 13 4 7 1006.3 1006.2 0.0
28/09:00am 34.1 - - - - SSE 7 17 4 9 1006.5 1006.4 0.0
28/08:30am 32.4 - - - - S 13 19 7 10 1006.4 1006.3 0.0
28/08:00am 31.2 - - - - SSW 11 17 6 9 1006.4 1006.3 0.0
28/07:30am 29.6 - - - - SSW 13 19 7 10 1006.2 1006.1 0.0
28/07:00am 28.3 - - - - SW 7 11 4 6 1006.0 1005.9 0.0
28/06:30am 26.7 - - - - S 7 9 4 5 1005.7 1005.6 0.0
28/06:00am 26.2 - - - - SW 7 9 4 5 1005.2 1005.1 0.0
28/05:30am 26.6 - - - - SW 7 9 4 5 1004.9 1004.8 0.0
28/05:00am 27.0 - - - - WSW 7 9 4 5 1004.6 1004.5 0.0
28/04:30am 27.8 - - - - WSW 11 15 6 8 1004.5 1004.4 0.0
28/04:00am 28.1 - - - - WSW 13 19 7 10 1004.3 1004.2 0.0
28/03:30am 28.1 - - - - SW 15 24 8 13 1004.0 1003.9 0.0
28/03:00am 27.4 - - - - SW 13 17 7 9 1004.2 1004.1 0.0
28/02:30am 27.0 - - - - SSW 11 13 6 7 1004.4 1004.3 0.0
28/02:00am 26.8 - - - - SW 11 13 6 7 1004.4 1004.3 0.0
28/01:30am 26.5 - - - - SW 9 13 5 7 1004.7 1004.6 0.0
28/01:00am 26.6 - - - - SW 7 9 4 5 1005.0 1004.9 0.0
28/12:30am 27.1 - - - - NE 4 9 2 5 1005.3 1005.2 0.0
28/12:00am 27.9 - - - - NW 6 9 3 5 1005.5 1005.4 0.0
 
Date/Time
WST
Temp
°C
App
Temp
°C
Dew
Point
°C
Rel
Hum
%
Delta-T
°C
Wind Press
QNH
hPa
Press
MSL
hPa
Rain since
9am
mm
Dir  Spd
km/h
Gust
km/h
Spd
kts
Gust
kts
27/11:30pm 28.6 - - - - WNW 7 11 4 6 1005.9 1005.8 0.0
27/11:00pm 29.0 - - - - WSW 11 15 6 8 1006.8 1006.7 0.0
27/10:30pm 30.4 - - - - SW 15 26 8 14 1007.5 1007.4 0.0
27/10:00pm 29.4 - - - - SW 11 15 6 8 1006.9 1006.8 0.0
27/09:30pm 29.7 - - - - WSW 13 17 7 9 1007.0 1006.9 0.0
27/09:00pm 29.9 - - - - W 11 19 6 10 1006.5 1006.4 0.0
27/08:30pm 30.0 - - - - W 15 26 8 14 1005.7 1005.6 0.0
27/08:00pm 30.1 - - - - W 17 28 9 15 1005.4 1005.3 0.0
27/07:30pm 30.1 - - - - WNW 19 26 10 14 1004.9 1004.8 0.0
27/07:00pm 30.2 - - - - WNW 19 24 10 13 1004.7 1004.6 0.0
27/06:30pm 30.4 - - - - WNW 20 32 11 17 1004.5 1004.4 0.0
27/06:00pm 31.0 - - - - WNW 20 32 11 17 1004.5 1004.4 0.0
27/05:30pm 31.6 - - - - NW 20 32 11 17 1004.1 1004.0 0.0
27/05:00pm 32.0 - - - - WNW 22 35 12 19 1004.1 1004.0 0.0
27/04:30pm 32.2 - - - - NW 26 35 14 19 1003.9 1003.8 0.0
27/04:00pm 32.8 - - - - WNW 22 32 12 17 1004.0 1003.9 0.0
27/03:30pm 33.3 - - - - NW 24 33 13 18 1004.1 1004.0 0.0
27/03:00pm 33.4 - - - - NW 24 35 13 19 1004.3 1004.2 0.0
27/02:30pm 34.7 - - - - NW 20 32 11 17 1004.4 1004.3 0.0
27/02:00pm 34.4 - - - - NW 22 33 12 18 1004.6 1004.5 0.0
27/01:30pm 34.8 - - - - NW 22 39 12 21 1004.7 1004.6 0.0
27/01:00pm 34.4 - - - - NW 22 33 12 18 1005.0 1004.9 0.0
27/12:30pm 34.7 - - - - NW 24 35 13 19 1005.5 1005.4 0.0
27/12:00pm 34.9 - - - - NW 22 33 12 18 1005.7 1005.6 0.0
27/11:30am 35.2 - - - - NW 19 30 10 16 1006.3 1006.2 0.0
27/11:00am 34.1 - - - - WNW 20 33 11 18 1006.3 1006.2 0.0
27/10:30am 34.9 - - - - W 19 26 10 14 1006.3 1006.2 0.0
27/10:00am 35.0 - - - - W 15 20 8 11 1006.6 1006.5 0.0
27/09:30am 34.0 - - - - WSW 15 24 8 13 1006.8 1006.7 0.0
27/09:00am 33.0 - - - - WSW 17 28 9 15 1006.8 1006.7 0.0
27/08:30am 32.1 - - - - WSW 17 26 9 14 1006.7 1006.6 0.0
27/08:00am 31.3 - - - - WSW 15 22 8 12 1006.5 1006.4 0.0
27/07:30am 29.9 - - - - WSW 15 20 8 11 1006.5 1006.4 0.0
27/07:00am 28.6 - - - - SW 11 17 6 9 1006.6 1006.5 0.0
27/06:30am 27.1 - - - - SW 7 11 4 6 1006.5 1006.4 0.0
27/06:00am 26.8 - - - - SW 7 9 4 5 1006.2 1006.1 0.0
27/05:30am 27.0 - - - - SW 7 9 4 5 1006.0 1005.9 0.0
27/05:00am 27.1 - - - - WSW 7 9 4 5 1005.7 1005.6 0.0
27/04:30am 27.3 - - - - WSW 7 9 4 5 1005.5 1005.4 0.0
27/04:00am 27.5 - - - - SW 7 11 4 6 1005.2 1005.1 0.0
27/03:30am 28.0 - - - - WSW 7 9 4 5 1005.1 1005.0 0.0
27/03:00am 28.5 - - - - W 9 13 5 7 1005.2 1005.1 0.0
27/02:30am 28.9 - - - - W 11 17 6 9 1005.2 1005.1 0.0
27/02:00am 29.2 - - - - W 13 20 7 11 1005.3 1005.2 0.0
27/01:30am 29.2 - - - - W 13 22 7 12 1005.5 1005.4 0.0
27/01:00am 29.3 - - - - WNW 13 19 7 10 1005.7 1005.6 0.0
27/12:30am 29.3 - - - - WNW 13 20 7 11 1005.7 1005.6 0.0
27/12:00am 29.4 - - - - WNW 13 22 7 12 1005.8 1005.7 0.0
 
Date/Time
WST
Temp
°C
App
Temp
°C
Dew
Point
°C
Rel
Hum
%
Delta-T
°C
Wind Press
QNH
hPa
Press
MSL
hPa
Rain since
9am
mm
Dir  Spd
km/h
Gust
km/h
Spd
kts
Gust
kts
26/11:30pm 29.5 - - - - WNW 15 26 8 14 1005.8 1005.7 0.0
26/11:00pm 29.4 - - - - WNW 13 20 7 11 1006.0 1005.9 0.0
26/10:30pm 29.5 - - - - WNW 13 22 7 12 1006.0 1005.9 0.0
26/10:00pm 29.5 - - - - WNW 13 19 7 10 1006.0 1005.9 0.0
26/09:30pm 29.4 - - - - WNW 11 15 6 8 1005.9 1005.8 0.0
26/09:00pm 29.6 - - - - WNW 13 20 7 11 1005.7 1005.6 0.0
26/08:30pm 29.8 - - - - WNW 13 22 7 12 1005.7 1005.6 0.0
26/08:00pm 29.8 - - - - WNW 15 24 8 13 1005.3 1005.2 0.0
26/07:30pm 29.9 - - - - WNW 15 24 8 13 1005.1 1005.0 0.0
26/07:00pm 30.2 - - - - NW 17 28 9 15 1005.0 1004.9 0.0
26/06:30pm 30.6 - - - - NW 17 26 9 14 1004.8 1004.7 0.0
26/06:00pm 31.0 - - - - NW 20 28 11 15 1004.4 1004.3 0.0
26/05:30pm 31.8 - - - - NW 20 32 11 17 1004.3 1004.2 0.0
26/05:00pm 32.4 - - - - NW 20 32 11 17 1004.0 1003.9 0.0
26/04:30pm 33.0 - - - - NW 22 32 12 17 1004.1 1004.0 0.0
26/04:00pm 33.6 - - - - NW 20 32 11 17 1003.9 1003.8 0.0
26/03:30pm 34.5 - - - - NW 19 28 10 15 1004.1 1004.0 0.0
26/03:00pm 34.6 - - - - NW 20 30 11 16 1004.3 1004.2 0.0
26/02:30pm 34.8 - - - - NW 20 32 11 17 1004.6 1004.5 0.0
26/02:00pm 34.6 - - - - NW 22 32 12 17 1004.9 1004.8 0.0
26/01:30pm 34.1 - - - - NW 24 35 13 19 1005.0 1004.9 0.0
26/01:00pm 34.6 - - - - NW 24 33 13 18 1005.4 1005.3 0.0
26/12:30pm 34.4 - - - - NW 20 32 11 17 1006.0 1005.9 0.0
26/12:00pm 35.0 - - - - NW 20 30 11 16 1006.4 1006.3 0.0
26/11:30am 34.8 - - - - NW 20 35 11 19 1006.6 1006.5 0.0
26/11:00am 34.8 - - - - NW 20 30 11 16 1006.8 1006.7 0.0
26/10:30am 34.2 - - - - NW 17 24 9 13 1007.2 1007.1 0.0
26/10:00am 34.0 - - - - WNW 15 20 8 11 1007.3 1007.2 0.0
26/09:30am 33.9 - - - - W 13 20 7 11 1007.4 1007.3 0.0
26/09:00am 32.8 - - - - W 13 24 7 13 1007.4 1007.3 0.0
26/08:30am 32.4 - - - - W 15 20 8 11 1007.4 1007.3 0.0
26/08:00am 31.3 - - - - W 15 24 8 13 1007.2 1007.1 0.0
26/07:30am 30.2 - - - - WSW 13 19 7 10 1006.8 1006.7 0.0
26/07:00am 28.7 - - - - WSW 9 15 5 8 1006.6 1006.5 0.0
26/06:30am 27.5 - - - - SW 6 7 3 4 1006.3 1006.2 0.0
26/06:00am 27.0 - - - - SW 7 9 4 5 1006.3 1006.2 0.0
26/05:30am 27.1 - - - - SW 7 9 4 5 1006.1 1006.0 0.0
26/05:00am 27.1 - - - - SSW 7 9 4 5 1005.9 1005.8 0.0
26/04:30am 27.2 - - - - SW 7 7 4 4 1005.7 1005.6 0.0
26/04:00am 27.6 - - - - SW 7 9 4 5 1005.5 1005.4 0.0
26/03:30am 28.2 - - - - W 7 9 4 5 1005.3 1005.2 0.0
26/03:00am 28.3 - - - - WNW 9 15 5 8 1005.2 1005.1 0.0
26/02:30am 28.5 - - - - WNW 9 11 5 6 1005.1 1005.0 0.0
26/02:00am 28.6 - - - - WNW 9 13 5 7 1005.3 1005.2 0.0
26/01:30am 28.6 - - - - WNW 9 19 5 10 1005.5 1005.4 0.0
26/01:00am 28.6 - - - - WNW 9 13 5 7 1005.6 1005.5 0.0
26/12:30am 28.8 - - - - WNW 11 15 6 8 1005.7 1005.6 0.0
26/12:00am 28.6 - - - - WNW 9 15 5 8 1006.0 1005.9 0.0

Other formats

Comma delimited format used in spreadsheet applications
http://www.bom.gov.au/fwo/IDW60801/IDW60801.94200.axf

JavaScript Object Notation format (JSON) in row-major order
http://www.bom.gov.au/fwo/IDW60801/IDW60801.94200.json

Data quality

Most of these data are generated automatically and are frequently updated. Quality checks on data are not normally performed. It is possible for incorrect values to appear. Refer to information at About Latest Weather Observations and please check the disclaimer before using these data.